createdAt,value
2022-11-24T00:01:25.362Z,9.23
2022-11-24T00:04:05.233Z,8.08
2022-11-24T00:06:35.938Z,9.68
2022-11-24T00:09:09.174Z,10.10
2022-11-24T00:11:36.887Z,8.10
2022-11-24T00:14:05.728Z,10.43
2022-11-24T00:16:38.100Z,9.40
2022-11-24T00:19:09.533Z,8.43
2022-11-24T00:22:00.071Z,8.00
2022-11-24T00:24:28.436Z,8.85
2022-11-24T00:26:56.704Z,10.88
2022-11-24T00:29:24.800Z,8.05
2022-11-24T00:31:54.945Z,7.42
2022-11-24T00:34:25.995Z,10.15
2022-11-24T00:36:54.288Z,11.00
2022-11-24T00:39:22.432Z,9.18
2022-11-24T00:41:50.615Z,10.78
2022-11-24T00:44:18.732Z,9.88
2022-11-24T00:46:47.026Z,9.45
2022-11-24T00:49:16.148Z,9.93
2022-11-24T00:51:45.813Z,11.20
2022-11-24T00:54:14.345Z,9.18
2022-11-24T00:56:42.157Z,9.45
2022-11-24T00:59:10.639Z,8.53
2022-11-24T01:01:38.380Z,10.38
2022-11-24T01:04:06.133Z,11.43
2022-11-24T01:06:35.681Z,11.35
2022-11-24T01:09:04.499Z,8.98
2022-11-24T01:11:37.076Z,11.80
2022-11-24T01:14:05.229Z,10.75
2022-11-24T01:16:35.593Z,9.30
2022-11-24T01:19:03.997Z,11.30
2022-11-24T01:21:32.615Z,10.25
2022-11-24T01:24:02.224Z,8.08
2022-11-24T01:26:30.512Z,10.72
2022-11-24T01:28:58.901Z,9.38
2022-11-24T01:31:27.646Z,10.38
2022-11-24T01:33:58.820Z,9.93
2022-11-24T01:36:27.213Z,11.30
2022-11-24T01:38:55.281Z,8.05
2022-11-24T01:41:27.772Z,8.63
2022-11-24T01:43:56.354Z,8.05
2022-11-24T01:46:45.348Z,8.65
2022-11-24T01:49:37.943Z,11.95
2022-11-24T01:52:18.938Z,11.80
2022-11-24T01:54:56.894Z,10.03
2022-11-24T01:57:31.777Z,9.35
2022-11-24T02:00:04.141Z,8.53
2022-11-24T02:02:33.908Z,7.90
2022-11-24T02:05:26.571Z,8.73
2022-11-24T02:07:57.458Z,16.20
2022-11-24T02:10:25.226Z,9.75
2022-11-24T02:12:56.140Z,14.83
2022-11-24T02:15:24.729Z,11.28
2022-11-24T02:18:12.920Z,9.80
2022-11-24T02:20:43.687Z,8.83
2022-11-24T02:23:27.631Z,8.25
2022-11-24T02:26:02.158Z,8.98
2022-11-24T02:28:32.167Z,11.40
2022-11-24T02:31:01.630Z,9.75
2022-11-24T02:33:30.095Z,9.08
2022-11-24T02:35:58.349Z,8.55
2022-11-24T02:38:32.361Z,8.53
2022-11-24T02:41:04.014Z,9.60
2022-11-24T02:43:35.723Z,13.05
2022-11-24T02:46:04.489Z,14.75
2022-11-24T02:48:32.414Z,13.25
2022-11-24T02:51:00.315Z,13.43
2022-11-24T02:53:28.059Z,13.95
2022-11-24T02:55:56.168Z,10.55
2022-11-24T02:58:25.826Z,10.40
2022-11-24T03:00:55.045Z,10.55
2022-11-24T03:03:23.621Z,12.03
2022-11-24T03:06:11.110Z,12.90
2022-11-24T03:08:39.880Z,13.90
2022-11-24T03:11:07.824Z,11.97
2022-11-24T03:13:35.792Z,14.65
2022-11-24T03:16:04.070Z,14.60
2022-11-24T03:18:31.626Z,14.53
2022-11-24T03:21:00.668Z,12.80
2022-11-24T03:23:28.675Z,12.45
2022-11-24T03:25:58.468Z,12.23
2022-11-24T03:28:25.980Z,10.78
2022-11-24T03:30:53.760Z,11.88
2022-11-24T03:33:21.384Z,9.93
2022-11-24T03:35:49.088Z,10.82
2022-11-24T03:38:17.460Z,10.53
2022-11-24T03:40:45.442Z,9.15
2022-11-24T03:43:16.272Z,12.10
2022-11-24T03:45:48.080Z,10.45
2022-11-24T03:48:20.896Z,12.33
2022-11-24T03:50:57.854Z,12.30
2022-11-24T03:53:28.395Z,10.48
2022-11-24T03:55:56.794Z,12.33
2022-11-24T03:58:25.629Z,16.07
2022-11-24T04:00:54.759Z,14.40
2022-11-24T04:03:23.211Z,14.98
2022-11-24T04:05:51.805Z,14.50
2022-11-24T04:08:21.734Z,13.83
2022-11-24T04:10:51.696Z,12.98
2022-11-24T04:13:21.901Z,14.18
2022-11-24T04:15:54.068Z,12.30
2022-11-24T04:18:22.550Z,18.00
2022-11-24T04:20:51.852Z,12.37
2022-11-24T04:23:20.288Z,16.50
2022-11-24T04:25:48.172Z,15.90
2022-11-24T04:28:16.125Z,16.17
2022-11-24T04:30:45.332Z,16.40
2022-11-24T04:33:14.225Z,25.48
2022-11-24T04:35:42.675Z,14.20
2022-11-24T04:38:10.271Z,12.28
2022-11-24T04:40:39.568Z,12.18
2022-11-24T04:43:08.335Z,13.30
2022-11-24T04:45:36.487Z,15.93
2022-11-24T04:48:04.870Z,13.10
2022-11-24T04:50:43.468Z,12.68
2022-11-24T04:53:11.938Z,14.95
2022-11-24T04:55:41.910Z,14.63
2022-11-24T04:58:12.068Z,12.63
2022-11-24T05:00:40.362Z,13.32
2022-11-24T05:03:08.462Z,12.50
2022-11-24T05:05:36.391Z,11.50
2022-11-24T05:08:04.449Z,13.85
2022-11-24T05:10:38.110Z,15.43
2022-11-24T05:13:10.051Z,15.23
2022-11-24T05:15:40.570Z,15.95
2022-11-24T05:18:11.140Z,13.93
2022-11-24T05:20:59.247Z,13.08
2022-11-24T05:23:27.716Z,14.33
2022-11-24T05:26:04.571Z,12.45
2022-11-24T05:28:32.621Z,13.70
2022-11-24T05:31:03.514Z,14.58
2022-11-24T05:33:33.525Z,18.23
2022-11-24T05:36:03.506Z,18.67
2022-11-24T05:38:33.055Z,17.15
2022-11-24T05:41:06.315Z,19.57
2022-11-24T05:43:56.628Z,18.00
2022-11-24T05:46:25.050Z,18.27
2022-11-24T05:48:52.754Z,20.40
2022-11-24T05:51:20.891Z,21.40
2022-11-24T05:53:48.841Z,19.57
2022-11-24T05:56:17.131Z,17.48
2022-11-24T05:58:45.146Z,16.93
2022-11-24T06:01:13.873Z,14.50
2022-11-24T06:03:41.674Z,12.40
2022-11-24T06:06:09.834Z,17.37
2022-11-24T06:08:37.795Z,17.85
2022-11-24T06:11:19.513Z,16.67
2022-11-24T06:13:51.621Z,14.58
2022-11-24T06:16:19.727Z,15.32
2022-11-24T06:18:48.052Z,15.90
2022-11-24T06:21:17.718Z,19.30
2022-11-24T06:23:50.518Z,19.17
2022-11-24T06:26:18.654Z,20.05
2022-11-24T06:28:46.782Z,22.98
2022-11-24T06:31:15.075Z,18.87
2022-11-24T06:33:43.351Z,18.45
2022-11-24T06:36:14.127Z,23.65
2022-11-24T06:38:41.845Z,21.93
2022-11-24T06:41:15.683Z,23.77
2022-11-24T06:43:43.444Z,21.43
2022-11-24T06:46:13.232Z,22.65
2022-11-24T06:48:41.125Z,20.62
2022-11-24T06:51:11.349Z,22.20
2022-11-24T06:53:40.777Z,21.35
2022-11-24T06:56:17.789Z,19.77
2022-11-24T06:58:47.790Z,23.75
2022-11-24T07:01:18.022Z,22.10
2022-11-24T07:03:46.277Z,22.82
2022-11-24T07:06:16.072Z,20.80
2022-11-24T07:08:44.716Z,23.70
2022-11-24T07:11:15.908Z,23.90
2022-11-24T07:13:44.985Z,24.37
2022-11-24T07:16:15.736Z,21.17
2022-11-24T07:18:45.144Z,18.73
2022-11-24T07:21:14.451Z,18.73
2022-11-24T07:23:42.710Z,17.23
2022-11-24T07:26:11.618Z,17.40
2022-11-24T07:28:39.588Z,19.17
2022-11-24T07:31:09.615Z,22.15
2022-11-24T07:33:40.937Z,22.27
2022-11-24T07:36:10.037Z,20.15
2022-11-24T07:38:38.041Z,30.65
2022-11-24T07:41:09.183Z,21.75
2022-11-24T07:43:38.158Z,20.20
2022-11-24T07:46:08.135Z,22.77
2022-11-24T07:48:36.025Z,22.52
2022-11-24T07:51:05.373Z,27.17
2022-11-24T07:53:34.685Z,23.67
2022-11-24T07:56:04.263Z,24.90
2022-11-24T07:58:35.068Z,25.72
2022-11-24T08:01:19.303Z,27.65
2022-11-24T08:03:47.654Z,30.48
2022-11-24T08:06:31.745Z,26.30
2022-11-24T08:08:56.960Z,28.50
2022-11-24T08:11:25.181Z,23.47
2022-11-24T08:13:55.564Z,22.37
2022-11-24T08:16:23.827Z,19.42
2022-11-24T08:18:53.858Z,19.82
2022-11-24T08:21:35.473Z,25.12
2022-11-24T08:24:03.320Z,24.47
2022-11-24T08:26:31.983Z,20.40
2022-11-24T08:29:01.064Z,21.65
2022-11-24T08:31:31.575Z,17.20
2022-11-24T08:34:00.196Z,19.35
2022-11-24T08:36:28.199Z,19.95
2022-11-24T08:38:57.679Z,20.00
2022-11-24T08:41:27.201Z,18.98
2022-11-24T08:43:55.755Z,18.00
2022-11-24T08:46:25.168Z,32.10
2022-11-24T08:48:54.824Z,28.67
2022-11-24T08:51:25.172Z,28.23
2022-11-24T08:54:00.680Z,21.33
2022-11-24T08:56:30.711Z,22.50
2022-11-24T08:58:59.523Z,18.75
2022-11-24T09:01:28.916Z,22.80
2022-11-24T09:04:00.037Z,20.55
2022-11-24T09:06:32.970Z,19.77
2022-11-24T09:09:01.104Z,20.40
2022-11-24T09:11:32.700Z,20.80
2022-11-24T09:14:00.728Z,21.27
2022-11-24T09:16:29.458Z,21.57
2022-11-24T09:19:03.867Z,21.82
2022-11-24T09:21:34.537Z,24.23
2022-11-24T09:24:02.883Z,23.83
2022-11-24T09:26:32.639Z,19.92
2022-11-24T09:29:02.147Z,25.68
2022-11-24T09:31:35.300Z,21.68
2022-11-24T09:34:06.475Z,22.35
2022-11-24T09:36:34.609Z,22.40
2022-11-24T09:39:02.953Z,22.42
2022-11-24T09:42:00.736Z,23.98
2022-11-24T09:44:41.688Z,21.95
2022-11-24T09:47:25.003Z,21.23
2022-11-24T09:50:17.968Z,26.37
2022-11-24T09:52:49.674Z,23.02
2022-11-24T09:55:23.728Z,23.60
2022-11-24T09:57:55.255Z,24.40
2022-11-24T10:00:26.337Z,24.45
2022-11-24T10:02:57.729Z,21.73
2022-11-24T10:05:28.919Z,27.40
2022-11-24T10:08:24.139Z,26.42
2022-11-24T10:10:59.932Z,27.47
2022-11-24T10:13:46.265Z,23.98
2022-11-24T10:16:52.344Z,26.35
2022-11-24T10:22:38.327Z,28.80
2022-11-24T10:25:33.453Z,27.73
2022-11-24T10:28:07.179Z,29.77
2022-11-24T10:30:35.404Z,23.63
2022-11-24T10:33:16.264Z,25.05
2022-11-24T10:35:57.257Z,31.35
2022-11-24T10:38:45.074Z,27.02
2022-11-24T10:41:20.415Z,28.10
2022-11-24T10:43:49.042Z,26.90
2022-11-24T10:46:29.169Z,27.55
2022-11-24T10:52:11.484Z,29.52
2022-11-24T10:54:52.399Z,32.05
2022-11-24T10:57:38.977Z,29.00
2022-11-24T11:00:23.047Z,28.85
2022-11-24T11:02:55.108Z,28.23
2022-11-24T11:05:29.651Z,31.68
2022-11-24T11:08:18.839Z,29.27
2022-11-24T11:10:48.888Z,29.30
2022-11-24T11:13:30.712Z,29.30
2022-11-24T11:16:00.198Z,30.17
2022-11-24T11:18:31.591Z,26.60
2022-11-24T11:21:05.120Z,28.02
2022-11-24T11:23:37.409Z,28.15
2022-11-24T11:26:28.038Z,31.62
2022-11-24T11:31:39.588Z,28.25
2022-11-24T11:34:24.994Z,29.60
2022-11-24T11:36:50.186Z,32.65
2022-11-24T11:39:22.336Z,35.50
2022-11-24T11:42:02.672Z,31.75
2022-11-24T11:44:38.487Z,34.25
2022-11-24T11:47:14.171Z,34.80
2022-11-24T11:49:45.173Z,56.98
2022-11-24T11:52:23.041Z,38.75
2022-11-24T11:55:20.339Z,34.10
2022-11-24T11:57:52.312Z,31.37
2022-11-24T12:00:22.483Z,35.55
2022-11-24T12:03:16.155Z,32.25
2022-11-24T12:05:51.674Z,30.25
2022-11-24T12:09:19.198Z,32.10
2022-11-24T12:11:30.870Z,40.73
2022-11-24T12:14:04.869Z,34.50
2022-11-24T12:16:53.276Z,40.65
2022-11-24T12:19:30.912Z,36.48
2022-11-24T12:22:11.795Z,33.42
2022-11-24T12:24:43.462Z,33.15
2022-11-24T12:27:22.523Z,34.27
2022-11-24T12:29:54.184Z,31.87
2022-11-24T12:32:28.308Z,29.00
2022-11-24T12:35:06.095Z,33.92
2022-11-24T12:37:58.267Z,35.40
2022-11-24T12:41:18.218Z,33.18
2022-11-24T12:43:34.888Z,31.05
2022-11-24T12:46:14.025Z,34.10
2022-11-24T12:48:58.443Z,31.15
2022-11-24T12:51:36.255Z,30.30
2022-11-24T12:54:08.242Z,32.17
2022-11-24T12:56:46.634Z,29.95
2022-11-24T12:59:30.904Z,35.28
2022-11-24T13:02:15.699Z,31.75
2022-11-24T13:04:53.458Z,31.93
2022-11-24T13:07:25.101Z,30.82
2022-11-24T13:10:53.679Z,29.82
2022-11-24T13:13:08.928Z,31.95
2022-11-24T13:16:34.475Z,33.40
2022-11-24T13:18:47.836Z,34.67
2022-11-24T13:21:50.532Z,27.77
2022-11-24T13:24:22.916Z,28.55
2022-11-24T13:26:57.703Z,23.90
2022-11-24T13:32:12.577Z,27.80
2022-11-24T13:34:44.182Z,32.13
2022-11-24T13:37:34.395Z,33.33
2022-11-24T13:39:59.649Z,26.75
2022-11-24T13:42:41.187Z,27.65
2022-11-24T13:45:04.450Z,25.80
2022-11-24T13:47:36.438Z,26.85
2022-11-24T13:50:16.827Z,26.77
2022-11-24T13:53:11.486Z,28.83
2022-11-24T13:55:41.665Z,25.20
2022-11-24T13:58:13.438Z,27.67
2022-11-24T14:04:31.049Z,24.07
2022-11-24T14:07:01.195Z,26.33
2022-11-24T14:09:36.963Z,24.30
2022-11-24T14:12:10.941Z,24.23
2022-11-24T14:14:38.842Z,40.27
2022-11-24T14:17:08.562Z,26.97
2022-11-24T14:19:36.313Z,22.82
2022-11-24T14:22:04.090Z,32.73
2022-11-24T14:24:39.875Z,22.37
2022-11-24T14:27:03.350Z,24.43
2022-11-24T14:29:32.978Z,24.35
2022-11-24T14:32:03.706Z,23.00
2022-11-24T14:34:34.609Z,26.45
2022-11-24T14:37:02.944Z,22.48
2022-11-24T14:39:31.405Z,21.27
2022-11-24T14:42:05.980Z,22.80
2022-11-24T14:47:30.527Z,23.10
2022-11-24T14:49:57.630Z,24.35
2022-11-24T14:52:27.069Z,23.45
2022-11-24T14:55:07.562Z,28.07
2022-11-24T14:57:33.967Z,26.40
2022-11-24T15:00:15.606Z,24.70
2022-11-24T15:02:56.811Z,25.20
2022-11-24T15:05:25.970Z,27.05
2022-11-24T15:08:02.841Z,30.12
2022-11-24T15:10:37.221Z,30.85
2022-11-24T15:13:24.419Z,48.33
2022-11-24T15:16:03.243Z,39.10
2022-11-24T15:18:38.176Z,29.20
2022-11-24T15:21:11.768Z,31.57
2022-11-24T15:23:42.011Z,34.50
2022-11-24T15:26:16.838Z,31.75
2022-11-24T15:31:14.916Z,28.00
2022-11-24T15:33:45.287Z,31.75
2022-11-24T15:36:15.322Z,32.67
2022-11-24T15:38:43.250Z,32.55
2022-11-24T15:41:17.599Z,32.50
2022-11-24T15:43:45.899Z,37.15
2022-11-24T15:46:13.782Z,41.20
2022-11-24T15:48:41.685Z,32.30
2022-11-24T15:51:13.376Z,33.40
2022-11-24T15:53:44.995Z,50.12
2022-11-24T15:56:22.221Z,33.85
2022-11-24T15:58:50.647Z,35.52
2022-11-24T16:01:18.596Z,40.67
2022-11-24T16:03:48.217Z,35.83
2022-11-24T16:06:24.748Z,40.52
2022-11-24T16:08:50.200Z,37.50
2022-11-24T16:11:19.029Z,33.35
2022-11-24T16:13:51.948Z,35.60
2022-11-24T16:16:17.202Z,35.28
2022-11-24T16:18:45.783Z,35.05
2022-11-24T16:21:13.278Z,36.45
2022-11-24T16:23:42.358Z,45.08
2022-11-24T16:26:10.760Z,42.13
2022-11-24T16:28:39.012Z,43.90
2022-11-24T16:31:07.085Z,41.25
2022-11-24T16:33:35.773Z,44.77
2022-11-24T16:36:03.870Z,47.30
2022-11-24T16:38:32.213Z,41.83
2022-11-24T16:41:00.357Z,46.85
2022-11-24T16:43:29.834Z,47.58
2022-11-24T16:46:16.483Z,46.88
2022-11-24T16:48:49.765Z,45.90
2022-11-24T16:51:19.695Z,50.67
2022-11-24T16:53:47.838Z,50.10
2022-11-24T16:56:16.848Z,45.83
2022-11-24T16:58:45.086Z,45.73
2022-11-24T17:01:14.099Z,43.15
2022-11-24T17:03:42.061Z,42.35
2022-11-24T17:06:12.063Z,42.23
2022-11-24T17:08:41.322Z,42.67
2022-11-24T17:11:10.501Z,40.80
2022-11-24T17:13:39.159Z,41.37
2022-11-24T17:16:09.511Z,45.23
2022-11-24T17:18:37.354Z,41.77
2022-11-24T17:21:10.255Z,40.80
2022-11-24T17:23:38.571Z,42.67
2022-11-24T17:26:09.829Z,50.60
2022-11-24T17:28:38.179Z,45.20
2022-11-24T17:31:30.980Z,46.55
2022-11-24T17:34:00.780Z,50.67
2022-11-24T17:36:31.168Z,46.45
2022-11-24T17:39:01.744Z,50.48
2022-11-24T17:41:29.424Z,45.43
2022-11-24T17:43:58.037Z,47.23
2022-11-24T17:46:27.678Z,47.48
2022-11-24T17:48:56.391Z,50.67
2022-11-24T17:51:26.105Z,43.50
2022-11-24T17:53:56.109Z,40.25
2022-11-24T17:56:26.801Z,43.20
2022-11-24T17:59:00.531Z,47.95
2022-11-24T18:01:30.787Z,44.25
2022-11-24T18:03:59.224Z,45.03
2022-11-24T18:06:29.171Z,42.58
2022-11-24T18:08:58.466Z,41.40
2022-11-24T18:11:31.697Z,41.37
2022-11-24T18:14:02.266Z,37.00
2022-11-24T18:16:35.346Z,33.70
2022-11-24T18:19:09.834Z,34.50
2022-11-24T18:21:41.086Z,31.57
2022-11-24T18:24:11.003Z,34.98
2022-11-24T18:26:40.603Z,34.75
2022-11-24T18:29:10.202Z,38.83
2022-11-24T18:31:39.927Z,35.23
2022-11-24T18:34:09.593Z,32.28
2022-11-24T18:36:38.905Z,28.75
2022-11-24T18:39:09.078Z,30.02
2022-11-24T18:41:37.338Z,24.52
2022-11-24T18:44:09.924Z,26.00
2022-11-24T18:46:38.773Z,26.80
2022-11-24T18:49:07.694Z,28.25
2022-11-24T18:51:39.706Z,28.10
2022-11-24T18:54:08.902Z,26.25
2022-11-24T18:56:37.225Z,26.52
2022-11-24T18:59:07.369Z,26.97
2022-11-24T19:01:38.122Z,31.10
2022-11-24T19:04:06.430Z,28.62
2022-11-24T19:06:37.871Z,29.77
2022-11-24T19:09:09.561Z,28.85
2022-11-24T19:11:41.114Z,24.43
2022-11-24T19:14:11.558Z,25.80
2022-11-24T19:16:39.851Z,24.40
2022-11-24T19:19:08.785Z,30.10
2022-11-24T19:21:39.117Z,25.08
2022-11-24T19:24:10.970Z,31.65
2022-11-24T19:26:39.907Z,35.40
2022-11-24T19:29:08.366Z,28.38
2022-11-24T19:31:38.822Z,26.70
2022-11-24T19:34:08.178Z,28.50
2022-11-24T19:36:36.883Z,27.85
2022-11-24T19:39:05.561Z,28.67
2022-11-24T19:41:36.812Z,25.95
2022-11-24T19:44:05.059Z,29.00
2022-11-24T19:46:34.015Z,31.97
2022-11-24T19:49:02.950Z,35.40
2022-11-24T19:51:33.684Z,37.63
2022-11-24T19:54:02.014Z,31.93
2022-11-24T19:56:32.109Z,26.95
2022-11-24T19:59:01.536Z,24.15
2022-11-24T20:01:32.314Z,25.72
2022-11-24T20:04:06.102Z,21.20
2022-11-24T20:06:37.661Z,28.57
2022-11-24T20:09:09.057Z,28.47
2022-11-24T20:11:37.620Z,25.92
2022-11-24T20:14:12.202Z,27.10
2022-11-24T20:16:41.021Z,27.82
2022-11-24T20:19:12.267Z,24.27
2022-11-24T20:21:41.990Z,26.95
2022-11-24T20:24:15.861Z,28.40
2022-11-24T20:26:46.923Z,34.88
2022-11-24T20:29:15.588Z,34.85
2022-11-24T20:31:49.031Z,32.83
2022-11-24T20:34:16.924Z,32.88
2022-11-24T20:36:46.288Z,36.13
2022-11-24T20:39:17.455Z,37.73
2022-11-24T20:41:45.581Z,35.90
2022-11-24T20:44:17.064Z,33.63
2022-11-24T20:46:48.228Z,33.50
2022-11-24T20:49:19.748Z,29.07
2022-11-24T20:51:48.321Z,34.27
2022-11-24T20:54:18.800Z,31.48
2022-11-24T20:56:47.931Z,31.60
2022-11-24T20:59:19.045Z,30.85
2022-11-24T21:01:47.270Z,30.75
2022-11-24T21:04:21.769Z,28.35
2022-11-24T21:06:49.969Z,25.90
2022-11-24T21:09:18.834Z,27.55
2022-11-24T21:11:49.674Z,29.95
2022-11-24T21:14:17.701Z,27.07
2022-11-24T21:16:45.848Z,25.00
2022-11-24T21:19:15.313Z,23.40
2022-11-24T21:21:43.311Z,27.62
2022-11-24T21:24:15.278Z,28.25
2022-11-24T21:26:44.393Z,25.02
2022-11-24T21:29:15.471Z,27.10
2022-11-24T21:31:43.639Z,25.27
2022-11-24T21:34:15.345Z,30.00
2022-11-24T21:36:45.078Z,29.25
2022-11-24T21:39:14.401Z,32.80
2022-11-24T21:41:42.932Z,42.27
2022-11-24T21:44:13.279Z,34.38
2022-11-24T21:46:46.230Z,43.58
2022-11-24T21:49:14.964Z,42.83
2022-11-24T21:51:42.541Z,37.10
2022-11-24T21:54:12.382Z,37.33
2022-11-24T21:56:40.887Z,33.73
2022-11-24T21:59:09.022Z,32.70
2022-11-24T22:01:37.557Z,30.55
2022-11-24T22:04:06.067Z,27.05
2022-11-24T22:06:35.076Z,26.68
2022-11-24T22:09:03.248Z,26.80
2022-11-24T22:11:31.424Z,27.15
2022-11-24T22:13:59.341Z,31.52
2022-11-24T22:16:27.172Z,29.57
2022-11-24T22:18:55.106Z,30.37
2022-11-24T22:21:27.842Z,31.42
2022-11-24T22:24:00.421Z,29.57
2022-11-24T22:26:29.195Z,28.30
2022-11-24T22:28:59.715Z,30.20
2022-11-24T22:31:34.558Z,28.83
2022-11-24T22:34:02.207Z,25.35
2022-11-24T22:36:31.287Z,28.75
2022-11-24T22:39:04.621Z,25.92
2022-11-24T22:41:34.627Z,26.90
2022-11-24T22:44:02.729Z,28.65
2022-11-24T22:46:31.979Z,26.02
2022-11-24T22:49:02.053Z,28.57
2022-11-24T22:51:33.222Z,30.65
2022-11-24T22:54:03.555Z,29.80
2022-11-24T22:56:32.694Z,32.08
2022-11-24T22:59:01.900Z,25.72
2022-11-24T23:01:31.456Z,26.23
2022-11-24T23:03:59.821Z,30.20
2022-11-24T23:06:29.881Z,27.25
2022-11-24T23:08:59.703Z,25.72
2022-11-24T23:11:37.659Z,27.42
2022-11-24T23:14:03.002Z,29.60
2022-11-24T23:16:31.088Z,30.35
2022-11-24T23:19:01.858Z,26.27
2022-11-24T23:21:31.955Z,41.20
2022-11-24T23:24:04.087Z,31.37
2022-11-24T23:26:40.824Z,26.93
2022-11-24T23:29:09.034Z,27.22
2022-11-24T23:31:38.810Z,28.25
2022-11-24T23:34:07.061Z,32.17
2022-11-24T23:36:34.941Z,27.45
2022-11-24T23:39:08.743Z,30.02
2022-11-24T23:41:37.175Z,29.18
2022-11-24T23:44:05.698Z,27.80
2022-11-24T23:46:35.203Z,25.02
2022-11-24T23:49:02.616Z,26.93
2022-11-24T23:54:16.943Z,31.73
2022-11-24T23:56:44.652Z,24.23
2022-11-24T23:59:13.620Z,30.55
